Latest Weather Observations for Parawa West

IDS60901

Issued at 11:41 am CDT Wednesday 12 December 2018 (issued every 10 minutes, with the page automatically refreshed every 10 minutes)

About weather observations | Map of Adelaide area stations | Latest observations for Adelaide area | Other Formats
Station Details ID: 023875 Name: SECOND VALLEY FOREST AWS Lat: -35.57 Lon: 138.29 Height: 341.0 m
Data from the previous 72 hours. | See also: Recent months at Parawa West
Date/Time
CDT
Temp
°C
App
Temp
°C
Dew
Point
°C
Rel
Hum
%
Delta-T
°C
Wind Press
QNH
hPa
Press
MSL
hPa
Rain since
9am
mm
Dir  Spd
km/h
Gust
km/h
Spd
kts
Gust
kts
12/11:30am 27.8 25.4 10.1 33 10.1 NW 13 20 7 11 1005.8 1004.9 0.0
12/11:00am 27.3 24.8 9.6 33 10.0 NW 13 19 7 10 1005.7 1004.8 0.0
12/10:30am 27.6 25.4 10.8 35 9.7 NW 13 19 7 10 1006.0 1005.1 0.0
12/10:00am 27.1 25.5 10.3 35 9.6 NNW 9 15 5 8 1006.3 1005.4 0.0
12/09:30am 26.5 24.8 9.8 35 9.4 NW 9 17 5 9 1006.6 1005.7 0.0
12/09:00am 26.1 24.6 9.0 34 9.5 NW 7 15 4 8 1006.7 1005.9 0.0
12/08:30am 25.0 23.6 9.7 38 8.5 NNW 7 15 4 8 1006.7 1005.9 0.0
12/08:00am 22.1 21.0 9.9 46 6.7 N 6 7 3 4 1006.5 1005.6 0.0
12/07:30am 22.2 21.6 9.0 43 7.2 NE 2 7 1 4 1006.3 1005.4 0.0
12/07:00am 22.1 21.7 8.2 41 7.4 CALM 0 2 0 1 1006.5 1005.6 0.0
12/06:30am 20.6 19.4 6.5 40 7.3 N 2 4 1 2 1006.6 1005.7 0.0
12/06:00am 19.8 18.1 3.9 35 7.7 N 2 6 1 3 1006.4 1005.5 0.0
12/05:30am 20.1 17.9 3.3 33 8.1 NNE 4 11 2 6 1006.3 1005.4 0.0
12/05:00am 21.5 17.1 2.7 29 9.0 NE 15 22 8 12 1006.3 1005.4 0.0
12/04:30am 22.1 16.8 2.8 28 9.3 ENE 20 30 11 16 1006.7 1005.9 0.0
12/04:00am 22.4 16.3 2.5 27 9.6 ENE 24 32 13 17 1006.8 1006.0 0.0
12/03:30am 22.0 16.4 3.6 30 9.0 ENE 22 30 12 16 1007.2 1006.4 0.0
12/03:00am 22.5 16.5 3.1 28 9.5 ENE 24 32 13 17 1007.5 1006.7 0.0
12/02:30am 22.0 17.0 4.6 32 8.7 ENE 20 28 11 15 1007.8 1007.0 0.0
12/02:00am 21.5 16.7 5.8 36 8.0 ENE 20 28 11 15 1008.1 1007.2 0.0
12/01:30am 21.2 16.8 7.4 41 7.2 E 20 26 11 14 1008.6 1007.7 0.0
12/01:00am 21.1 15.8 7.0 40 7.3 E 24 32 13 17 1008.8 1007.9 0.0
12/12:30am 20.8 15.8 6.4 39 7.4 E 22 28 12 15 1009.3 1008.5 0.0
12/12:00am 20.9 15.9 6.4 39 7.5 E 22 28 12 15 1009.6 1008.8 0.0
 
Date/Time
CDT
Temp
°C
App
Temp
°C
Dew
Point
°C
Rel
Hum
%
Delta-T
°C
Wind Press
QNH
hPa
Press
MSL
hPa
Rain since
9am
mm
Dir  Spd
km/h
Gust
km/h
Spd
kts
Gust
kts
11/11:30pm 20.9 15.1 4.5 34 8.1 E 24 32 13 17 1010.1 1009.3 0.0
11/11:00pm 19.8 15.8 6.5 42 6.8 E 17 24 9 13 1010.6 1009.8 0.0
11/10:30pm 19.7 15.2 6.8 43 6.6 ESE 20 28 11 15 1010.7 1009.9 0.0
11/10:00pm 19.0 14.8 5.8 42 6.6 ESE 17 20 9 11 1011.2 1010.3 0.0
11/09:30pm 19.0 14.2 4.7 39 7.0 ESE 19 22 10 12 1011.3 1010.4 0.0
11/09:00pm 18.5 14.5 4.7 40 6.7 ESE 15 19 8 10 1011.6 1010.7 0.0
11/08:30pm 18.4 14.3 4.6 40 6.7 SE 15 20 8 11 1011.5 1010.6 0.0
11/08:00pm 18.9 14.9 5.0 40 6.8 SE 15 22 8 12 1011.5 1010.6 0.0
11/07:30pm 19.8 14.6 3.5 34 7.9 SE 20 28 11 15 1011.7 1010.8 0.0
11/07:00pm 20.6 15.9 5.0 36 7.8 SE 19 24 10 13 1011.9 1011.1 0.0
11/06:30pm 21.1 16.6 5.9 37 7.7 SE 19 24 10 13 1011.9 1011.1 0.0
11/06:00pm 21.4 17.5 8.7 44 6.8 SE 19 24 10 13 1011.8 1010.9 0.0
11/05:30pm 22.0 18.9 10.2 47 6.5 SE 17 20 9 11 1011.9 1011.1 0.0
11/05:00pm 24.1 22.1 12.7 49 6.7 SE 15 22 8 12 1011.9 1011.1 0.0
11/04:30pm 24.1 22.1 12.7 49 6.7 SE 15 19 8 10 1012.5 1011.7 0.0
11/04:00pm 23.4 21.4 13.8 54 5.7 SE 17 22 9 12 1013.0 1012.2 0.0
11/03:30pm 25.8 23.6 14.3 49 6.9 ESE 19 24 10 13 1012.7 1011.9 0.0
11/03:00pm 24.3 22.0 14.1 53 6.1 SE 19 24 10 13 1013.2 1012.4 0.0
11/02:30pm 23.1 20.9 14.4 58 5.2 SSE 19 24 10 13 1013.5 1012.7 0.0
11/02:00pm 23.8 22.2 15.0 57 5.3 SSE 17 22 9 12 1014.0 1013.2 0.0
11/01:30pm 24.6 23.0 13.8 51 6.4 ESE 15 20 8 11 1014.3 1013.4 0.0
11/01:00pm 24.7 22.8 15.1 55 5.8 SE 19 24 10 13 1014.7 1013.9 0.0
11/12:30pm 23.1 21.3 14.4 58 5.2 SSE 17 22 9 12 1015.1 1014.3 0.0
11/12:00pm 23.9 22.3 14.0 54 5.9 SE 15 28 8 15 1015.3 1014.5 0.0
11/11:30am 24.8 20.9 9.5 38 8.5 E 20 26 11 14 1015.4 1014.6 0.0
11/11:00am 24.5 20.0 10.0 40 8.1 E 24 32 13 17 1015.6 1014.8 0.0
11/10:30am 24.4 20.6 9.9 40 8.1 E 20 28 11 15 1015.8 1015.0 0.0
11/10:00am 22.8 18.5 9.2 42 7.4 E 22 28 12 15 1016.2 1015.4 0.0
11/09:30am 22.0 18.4 10.5 48 6.4 E 20 26 11 14 1016.3 1015.5 0.0
11/09:00am 20.6 17.3 11.5 56 5.1 E 20 24 11 13 1016.3 1015.5 0.2
11/08:30am 18.6 15.5 11.7 64 3.9 E 19 24 10 13 1016.5 1015.7 0.2
11/08:00am 16.8 14.2 12.1 74 2.6 ESE 17 20 9 11 1016.7 1015.9 0.2
11/07:30am 15.4 13.3 12.3 82 1.7 ESE 15 22 8 12 1016.6 1015.8 0.2
11/07:00am 14.2 12.3 13.1 93 0.6 ESE 15 20 8 11 1016.4 1015.6 0.2
11/06:30am 13.1 10.4 12.8 98 0.2 ESE 19 24 10 13 1016.3 1015.5 0.0
11/06:00am 12.4 9.5 12.4 100 0.0 ESE 19 22 10 12 1016.0 1015.2 0.0
11/05:30am 12.7 9.7 12.7 100 0.0 ESE 20 28 11 15 1015.8 1015.0 0.0
11/05:00am 12.8 9.9 12.8 100 0.0 ESE 20 26 11 14 1015.2 1014.4 0.0
11/04:30am 12.8 9.9 12.8 100 0.0 ESE 20 30 11 16 1015.0 1014.2 0.0
11/04:00am 12.9 9.6 12.9 100 0.0 SE 22 28 12 15 1015.6 1014.8 0.0
11/03:30am 12.9 10.0 12.9 100 0.0 SE 20 24 11 13 1016.0 1015.2 0.0
11/03:00am 12.6 8.8 12.4 99 0.1 SE 24 32 13 17 1016.2 1015.4 0.0
11/02:30am 12.6 8.8 12.4 99 0.1 SE 24 33 13 18 1016.5 1015.7 0.0
11/02:00am 11.7 8.6 11.5 99 0.1 SE 19 22 10 12 1017.0 1016.3 0.0
11/01:30am 11.9 8.3 11.7 99 0.1 SE 22 26 12 14 1017.7 1016.9 0.0
11/01:00am 12.1 8.9 11.9 99 0.1 SE 20 26 11 14 1017.9 1017.1 0.0
11/12:30am 12.2 8.6 11.9 98 0.2 SE 22 28 12 15 1018.1 1017.3 0.0
11/12:00am 12.3 8.7 12.0 98 0.2 SE 22 30 12 16 1018.4 1017.6 0.0
 
Date/Time
CDT
Temp
°C
App
Temp
°C
Dew
Point
°C
Rel
Hum
%
Delta-T
°C
Wind Press
QNH
hPa
Press
MSL
hPa
Rain since
9am
mm
Dir  Spd
km/h
Gust
km/h
Spd
kts
Gust
kts
10/11:30pm 12.5 8.6 12.2 98 0.2 SE 24 32 13 17 1018.6 1017.8 0.0
10/11:00pm 12.7 8.8 12.2 97 0.3 SE 24 35 13 19 1019.1 1018.3 0.0
10/10:30pm 13.0 8.8 12.5 97 0.3 SSE 26 35 14 19 1019.1 1018.3 0.0
10/10:00pm 13.0 8.8 12.5 97 0.3 SSE 26 33 14 18 1019.1 1018.3 0.0
10/09:30pm 13.1 9.3 12.5 96 0.3 SE 24 33 13 18 1019.1 1018.3 0.0
10/09:00pm 13.2 8.6 12.3 94 0.5 SSE 28 37 15 20 1019.2 1018.4 0.0
10/08:30pm 13.1 8.3 11.8 92 0.7 SSE 28 37 15 20 1019.1 1018.3 0.0
10/08:00pm 13.3 9.0 11.9 91 0.8 SE 26 33 14 18 1019.1 1018.3 0.0
10/07:30pm 13.9 9.6 11.9 88 1.1 SE 26 35 14 19 1019.0 1018.2 0.0
10/07:00pm 14.6 10.4 12.5 87 1.2 SE 26 35 14 19 1018.8 1018.0 0.0
10/06:30pm 14.9 9.7 11.7 81 1.7 SSE 30 41 16 22 1018.5 1017.7 0.0
10/06:00pm 15.3 9.9 12.1 81 1.8 SSE 32 43 17 23 1018.4 1017.6 0.0
10/05:30pm 15.7 10.2 11.9 78 2.1 SSE 32 43 17 23 1018.2 1017.4 0.0
10/05:00pm 16.0 11.0 12.2 78 2.1 SSE 30 43 16 23 1018.4 1017.6 0.0
10/04:30pm 16.0 10.5 12.0 77 2.2 SSE 32 39 17 21 1018.4 1017.6 0.0
10/04:00pm 16.5 10.9 11.6 73 2.7 SSE 32 39 17 21 1018.7 1017.9 0.0
10/03:30pm 16.8 11.3 11.9 73 2.7 SSE 32 41 17 22 1019.0 1018.2 0.0
10/03:00pm 17.1 12.4 12.0 72 2.8 SSE 28 39 15 21 1019.3 1018.5 0.0
10/02:30pm 16.8 11.3 11.7 72 2.8 SSE 32 41 17 22 1019.1 1018.3 0.0
10/02:00pm 16.7 11.0 11.2 70 3.0 SE 32 39 17 21 1019.5 1018.8 0.0
10/01:30pm 16.9 11.7 11.6 71 2.9 SSE 30 37 16 20 1019.9 1019.2 0.0
10/01:00pm 16.6 10.9 11.3 71 2.9 SE 32 43 17 23 1019.7 1019.0 0.0
10/12:30pm 17.3 12.0 12.4 73 2.7 SE 32 43 17 23 1019.9 1019.2 0.0
10/12:00pm 16.5 10.4 11.6 73 2.7 SE 35 43 19 23 1019.8 1019.1 0.0
10/11:30am 15.5 9.6 11.1 75 2.4 SSE 33 46 18 25 1019.8 1019.1 0.0
10/11:00am 15.7 10.0 11.7 77 2.2 SE 33 43 18 23 1019.6 1018.9 0.0
10/10:30am 15.5 9.7 11.5 77 2.2 SE 33 44 18 24 1019.5 1018.8 0.0
10/10:00am 14.6 8.4 11.4 81 1.7 SE 35 44 19 24 1019.5 1018.8 0.0
10/09:30am 14.5 8.3 11.5 82 1.6 SE 35 46 19 25 1019.4 1018.7 0.0
10/09:00am 14.0 8.3 11.7 86 1.3 SE 33 43 18 23 1019.4 1018.7 0.0
10/08:30am 13.4 6.7 10.9 85 1.3 SE 37 46 20 25 1019.1 1018.3 0.0
10/08:00am 13.1 7.4 11.2 88 1.0 SE 32 43 17 23 1019.1 1018.3 0.0
10/07:30am 12.8 7.5 11.2 90 0.9 SE 30 39 16 21 1018.9 1018.1 0.0
10/07:00am 12.5 6.5 10.9 90 0.9 SE 33 44 18 24 1018.6 1017.8 0.0
10/06:30am 12.4 6.1 11.1 92 0.7 SSE 35 44 19 24 1018.3 1017.5 0.0
10/06:00am 12.4 6.7 11.1 92 0.7 SSE 32 41 17 22 1018.1 1017.3 0.0
10/05:30am 12.3 6.5 10.9 91 0.7 SSE 32 43 17 23 1018.3 1017.5 0.0
10/05:00am 12.3 7.4 11.2 93 0.6 SSE 28 39 15 21 1018.1 1017.3 0.0
10/04:30am 12.5 7.7 11.7 95 0.4 SE 28 37 15 20 1018.0 1017.2 0.0
10/04:00am 12.4 6.8 11.6 95 0.4 SSE 32 43 17 23 1017.9 1017.1 0.0
10/03:30am 12.4 7.3 11.8 96 0.3 SSE 30 39 16 21 1018.0 1017.2 0.0
10/03:00am 12.2 7.4 11.7 97 0.3 SSE 28 41 15 22 1017.9 1017.1 0.0
10/02:30am 12.3 6.8 11.8 97 0.3 SSE 32 41 17 22 1018.2 1017.4 0.0
10/02:00am 12.3 7.5 11.8 97 0.3 SSE 28 35 15 19 1018.4 1017.6 0.0
10/01:30am 12.6 8.0 12.3 98 0.2 SSE 28 35 15 19 1018.5 1017.7 0.0
10/01:00am 12.3 6.8 11.8 97 0.3 SSE 32 41 17 22 1018.6 1017.8 0.0
10/12:30am 12.6 7.6 12.1 97 0.3 SSE 30 39 16 21 1018.7 1017.9 0.0
10/12:00am 12.5 7.4 12.0 97 0.3 SSE 30 37 16 20 1018.7 1017.9 0.0
 
Date/Time
CDT
Temp
°C
App
Temp
°C
Dew
Point
°C
Rel
Hum
%
Delta-T
°C
Wind Press
QNH
hPa
Press
MSL
hPa
Rain since
9am
mm
Dir  Spd
km/h
Gust
km/h
Spd
kts
Gust
kts
09/11:30pm 12.5 6.9 12.0 97 0.3 SSE 33 41 18 22 1018.7 1017.9 0.0
09/11:00pm 12.5 7.8 12.0 97 0.3 SSE 28 37 15 20 1018.8 1018.0 0.0
09/10:30pm 12.5 7.5 12.2 98 0.2 SSE 30 39 16 21 1018.6 1017.8 0.0
09/10:00pm 12.6 8.0 12.3 98 0.2 SSE 28 35 15 19 1018.4 1017.6 0.0
09/09:30pm 12.5 7.8 12.0 97 0.3 SSE 28 35 15 19 1018.2 1017.4 0.0
09/09:00pm 12.8 8.6 12.3 97 0.3 SSE 26 32 14 17 1018.1 1017.3 0.0
09/08:30pm 12.8 7.7 12.0 95 0.4 SSE 30 37 16 20 1018.0 1017.2 0.0
09/08:00pm 13.2 7.8 12.3 94 0.5 SSE 32 39 17 21 1017.5 1016.7 0.0
09/07:30pm 13.4 7.9 12.3 93 0.6 SSE 33 39 18 21 1017.3 1016.5 0.0
09/07:00pm 14.0 8.5 12.4 90 0.9 SSE 33 44 18 24 1016.9 1016.2 0.0
09/06:30pm 15.0 9.7 13.0 88 1.1 SSE 33 44 18 24 1016.8 1016.0 0.0
09/06:00pm 14.2 8.3 12.4 89 1.0 SSE 35 43 19 23 1016.7 1015.9 0.0
09/05:30pm 14.9 9.2 12.9 88 1.1 SSE 35 44 19 24 1016.5 1015.7 0.0
09/05:00pm 14.8 9.4 12.7 87 1.2 SSE 33 43 18 23 1016.7 1015.9 0.0
09/04:30pm 15.3 10.5 13.0 86 1.3 SSE 30 35 16 19 1016.6 1015.8 0.0
09/04:00pm 15.1 9.8 12.6 85 1.4 SSE 32 39 17 21 1016.4 1015.6 0.0
09/03:30pm 15.4 10.6 12.9 85 1.4 SSE 30 35 16 19 1016.3 1015.5 0.0
09/03:00pm 16.3 11.5 13.0 81 1.9 SSE 30 37 16 20 1016.4 1015.6 0.0
09/02:30pm 16.7 12.6 13.8 83 1.7 SSE 28 35 15 19 1016.3 1015.5 0.0
09/02:00pm 16.7 12.0 13.2 80 2.0 SSE 30 35 16 19 1016.1 1015.3 0.0
09/01:30pm 15.2 11.6 13.1 87 1.2 SSE 24 32 13 17 1016.3 1015.5 0.0
09/01:00pm 15.3 12.1 13.0 86 1.3 SSE 22 30 12 16 1016.6 1015.8 0.0
09/12:30pm 15.1 11.4 12.8 86 1.3 SSE 24 32 13 17 1016.7 1015.9 0.0
09/12:00pm 14.4 10.8 13.0 91 0.8 SSE 24 30 13 16 1017.1 1016.4 0.0

Latest Capital City Observations: Canberra | Sydney | Melbourne | Brisbane | Adelaide | Perth | Hobart | Darwin

Other Formats:

Comma delimited format used in spreadsheet applications
http://www.bom.gov.au/fwo/IDS60901/IDS60901.94811.axf

JavaScript Object Notation format (JSON) in row-major order
http://www.bom.gov.au/fwo/IDS60901/IDS60901.94811.json